createdAt,value
2023-05-15T00:00:12.946Z,90
2023-05-15T00:01:20.114Z,95
2023-05-15T00:02:26.983Z,91
2023-05-15T00:03:33.727Z,86
2023-05-15T00:04:40.432Z,88
2023-05-15T00:05:57.362Z,93
2023-05-15T00:07:04.199Z,92
2023-05-15T00:08:18.076Z,86
2023-05-15T00:09:24.859Z,87
2023-05-15T00:10:31.715Z,84
2023-05-15T00:11:38.503Z,89
2023-05-15T00:12:46.243Z,86
2023-05-15T00:13:53.043Z,93
2023-05-15T00:14:59.870Z,92
2023-05-15T00:16:09.170Z,96
2023-05-15T00:17:15.958Z,95
2023-05-15T00:18:23.910Z,99
2023-05-15T00:19:35.539Z,99
2023-05-15T00:20:42.446Z,95
2023-05-15T00:21:49.384Z,96
2023-05-15T00:22:58.223Z,96
2023-05-15T00:24:08.034Z,98
2023-05-15T00:25:14.868Z,102
2023-05-15T00:26:40.410Z,102
2023-05-15T00:27:47.236Z,94
2023-05-15T00:28:54.053Z,99
2023-05-15T00:30:31.077Z,94
2023-05-15T00:31:38.004Z,94
2023-05-15T00:32:44.862Z,100
2023-05-15T00:33:51.624Z,93
2023-05-15T00:34:58.491Z,92
2023-05-15T00:36:05.373Z,95
2023-05-15T00:37:12.447Z,92
2023-05-15T00:38:19.398Z,85
2023-05-15T00:39:26.155Z,86
2023-05-15T00:40:36.248Z,89
2023-05-15T00:41:43.047Z,90
2023-05-15T00:42:49.872Z,90
2023-05-15T00:43:56.836Z,83
2023-05-15T00:45:03.667Z,87
2023-05-15T00:46:10.806Z,85
2023-05-15T00:47:47.823Z,83
2023-05-15T00:48:54.480Z,79
2023-05-15T00:50:01.350Z,90
2023-05-15T00:51:08.438Z,85
2023-05-15T00:52:15.253Z,83
2023-05-15T00:53:22.064Z,90
2023-05-15T00:54:28.940Z,80
2023-05-15T00:56:11.890Z,89
2023-05-15T00:57:18.733Z,92
2023-05-15T00:58:25.596Z,94
2023-05-15T00:59:32.545Z,92
2023-05-15T01:00:39.415Z,91
2023-05-15T01:01:46.054Z,97
2023-05-15T01:02:52.906Z,93
2023-05-15T01:04:06.602Z,94
2023-05-15T01:05:13.432Z,95
2023-05-15T01:06:20.297Z,95
2023-05-15T01:07:33.972Z,94
2023-05-15T01:08:40.759Z,90
2023-05-15T01:09:50.198Z,97
2023-05-15T01:11:16.405Z,100
2023-05-15T01:12:25.497Z,92
2023-05-15T01:13:35.282Z,93
2023-05-15T01:14:42.100Z,95
2023-05-15T01:15:48.912Z,93
2023-05-15T01:16:59.341Z,97
2023-05-15T01:18:06.335Z,93
2023-05-15T01:19:13.075Z,93
2023-05-15T01:20:19.741Z,96
2023-05-15T01:21:26.572Z,97
2023-05-15T01:22:38.389Z,99
2023-05-15T01:24:25.077Z,98
2023-05-15T01:25:40.348Z,95
2023-05-15T01:26:58.028Z,100
2023-05-15T01:28:09.887Z,97
2023-05-15T01:29:16.754Z,99
2023-05-15T01:30:37.289Z,101
2023-05-15T01:31:44.226Z,91
2023-05-15T01:32:51.012Z,96
2023-05-15T01:33:57.810Z,104
2023-05-15T01:35:08.004Z,101
2023-05-15T01:36:21.301Z,101
2023-05-15T01:37:28.159Z,98
2023-05-15T01:38:35.004Z,102
2023-05-15T01:39:42.005Z,101
2023-05-15T01:40:48.719Z,103
2023-05-15T01:41:55.502Z,97
2023-05-15T01:43:02.291Z,105
2023-05-15T01:44:12.726Z,100
2023-05-15T01:45:22.095Z,106
2023-05-15T01:46:31.150Z,103
2023-05-15T01:47:43.122Z,102
2023-05-15T01:48:55.775Z,102
2023-05-15T01:50:41.454Z,109
2023-05-15T01:51:48.445Z,113
2023-05-15T01:52:55.249Z,109
2023-05-15T01:54:02.044Z,108
2023-05-15T01:55:20.333Z,114
2023-05-15T01:56:40.730Z,111
2023-05-15T01:58:05.360Z,111
2023-05-15T01:59:12.201Z,111
2023-05-15T02:00:41.764Z,113
2023-05-15T02:01:48.657Z,109
2023-05-15T02:02:55.425Z,108
2023-05-15T02:04:02.203Z,112
2023-05-15T02:05:08.944Z,111
2023-05-15T02:06:20.661Z,107
2023-05-15T02:07:27.587Z,101
2023-05-15T02:08:34.478Z,104
2023-05-15T02:09:41.203Z,105
2023-05-15T02:10:54.028Z,106
2023-05-15T02:12:00.849Z,107
2023-05-15T02:13:07.902Z,105
2023-05-15T02:14:14.711Z,105
2023-05-15T02:15:21.620Z,102
2023-05-15T02:16:28.407Z,97
2023-05-15T02:17:35.190Z,96
2023-05-15T02:18:42.064Z,96
2023-05-15T02:19:48.794Z,101
2023-05-15T02:20:55.575Z,94
2023-05-15T02:22:10.230Z,93
2023-05-15T02:23:17.078Z,91
2023-05-15T02:24:23.973Z,97
2023-05-15T02:25:30.778Z,88
2023-05-15T02:26:45.390Z,94
2023-05-15T02:27:59.964Z,95
2023-05-15T02:29:06.850Z,91
2023-05-15T02:30:13.756Z,88
2023-05-15T02:31:30.693Z,92
2023-05-15T02:32:42.571Z,92
2023-05-15T02:33:54.402Z,91
2023-05-15T02:35:07.429Z,95
2023-05-15T02:36:27.297Z,92
2023-05-15T02:37:36.797Z,84
2023-05-15T02:38:46.390Z,85
2023-05-15T02:39:53.306Z,90
2023-05-15T02:41:03.058Z,89
2023-05-15T02:42:09.941Z,91
2023-05-15T02:43:16.907Z,89
2023-05-15T02:44:23.685Z,93
2023-05-15T02:45:30.593Z,89
2023-05-15T02:46:37.294Z,84
2023-05-15T02:47:44.151Z,90
2023-05-15T02:48:50.989Z,86
2023-05-15T02:50:00.825Z,88
2023-05-15T02:51:07.852Z,88
2023-05-15T02:52:15.496Z,89
2023-05-15T02:53:22.351Z,85
2023-05-15T02:54:29.176Z,88
2023-05-15T02:55:36.145Z,94
2023-05-15T02:56:42.949Z,85
2023-05-15T02:57:49.744Z,91
2023-05-15T02:58:56.545Z,94
2023-05-15T03:00:03.524Z,92
2023-05-15T03:01:10.830Z,97
2023-05-15T03:02:17.651Z,97
2023-05-15T03:03:24.351Z,101
2023-05-15T03:04:31.157Z,93
2023-05-15T03:05:42.877Z,102
2023-05-15T03:06:50.758Z,102
2023-05-15T03:07:57.576Z,97
2023-05-15T03:09:04.472Z,102
2023-05-15T03:10:11.328Z,106
2023-05-15T03:11:18.228Z,105
2023-05-15T03:12:24.985Z,106
2023-05-15T03:13:32.064Z,111
2023-05-15T03:14:38.980Z,111
2023-05-15T03:15:45.763Z,110
2023-05-15T03:16:52.668Z,111
2023-05-15T03:18:05.399Z,109
2023-05-15T03:19:32.831Z,117
2023-05-15T03:20:39.801Z,124
2023-05-15T03:21:58.311Z,119
2023-05-15T03:23:07.117Z,112
2023-05-15T03:24:13.965Z,121
2023-05-15T03:25:20.791Z,121
2023-05-15T03:26:27.803Z,119
2023-05-15T03:27:36.550Z,118
2023-05-15T03:28:43.325Z,117
2023-05-15T03:29:59.949Z,122
2023-05-15T03:31:49.730Z,119
2023-05-15T03:32:56.495Z,118
2023-05-15T03:34:03.383Z,117
2023-05-15T03:35:10.197Z,112
2023-05-15T03:36:17.143Z,117
2023-05-15T03:37:23.971Z,117
2023-05-15T03:38:45.398Z,124
2023-05-15T03:39:52.252Z,117
2023-05-15T03:40:59.117Z,113
2023-05-15T03:42:06.200Z,118
2023-05-15T03:43:13.013Z,116
2023-05-15T03:44:19.880Z,116
2023-05-15T03:45:27.028Z,119
2023-05-15T03:46:33.486Z,116
2023-05-15T03:47:40.414Z,122
2023-05-15T03:48:47.239Z,119
2023-05-15T03:50:11.661Z,126
2023-05-15T03:51:18.403Z,115
2023-05-15T03:52:25.249Z,117
2023-05-15T03:53:32.171Z,116
2023-05-15T03:54:39.035Z,114
2023-05-15T03:55:45.856Z,114
2023-05-15T03:56:52.690Z,114
2023-05-15T03:57:59.591Z,119
2023-05-15T03:59:09.639Z,113
2023-05-15T04:00:17.695Z,119
2023-05-15T04:01:23.642Z,120
2023-05-15T04:02:30.527Z,125
2023-05-15T04:03:37.308Z,120
2023-05-15T04:04:44.148Z,118
2023-05-15T04:05:50.935Z,116
2023-05-15T04:06:57.780Z,117
2023-05-15T04:08:04.572Z,116
2023-05-15T04:09:16.320Z,116
2023-05-15T04:10:23.272Z,117
2023-05-15T04:11:30.508Z,115
2023-05-15T04:12:37.373Z,116
2023-05-15T04:13:49.254Z,119
2023-05-15T04:14:56.098Z,120
2023-05-15T04:16:02.997Z,114
2023-05-15T04:17:09.974Z,120
2023-05-15T04:18:19.231Z,114
2023-05-15T04:19:27.892Z,117
2023-05-15T04:20:44.457Z,110
2023-05-15T04:21:53.478Z,118
2023-05-15T04:23:00.277Z,116
2023-05-15T04:24:07.062Z,124
2023-05-15T04:25:18.969Z,120
2023-05-15T04:26:25.804Z,119
2023-05-15T04:27:32.547Z,113
2023-05-15T04:29:19.222Z,117
2023-05-15T04:30:26.084Z,112
2023-05-15T04:31:33.047Z,117
2023-05-15T04:32:39.843Z,119
2023-05-15T04:33:51.294Z,115
2023-05-15T04:34:57.194Z,113
2023-05-15T04:36:04.028Z,118
2023-05-15T04:37:11.213Z,114
2023-05-15T04:38:18.055Z,119
2023-05-15T04:39:24.873Z,114
2023-05-15T04:40:32.570Z,112
2023-05-15T04:41:59.914Z,113
2023-05-15T04:43:26.384Z,111
2023-05-15T04:44:33.334Z,114
2023-05-15T04:45:40.012Z,118
2023-05-15T04:46:46.910Z,111
2023-05-15T04:48:15.851Z,114
2023-05-15T04:49:22.662Z,117
2023-05-15T04:50:53.178Z,120
2023-05-15T04:51:59.962Z,118
2023-05-15T04:53:06.843Z,115
2023-05-15T04:54:25.465Z,114
2023-05-15T04:55:33.571Z,117
2023-05-15T04:57:32.510Z,117
2023-05-15T04:58:41.381Z,115
2023-05-15T04:59:48.226Z,110
2023-05-15T05:00:55.090Z,119
2023-05-15T05:02:02.094Z,115
2023-05-15T05:03:08.806Z,120
2023-05-15T05:04:15.513Z,120
2023-05-15T05:05:25.481Z,119
2023-05-15T05:06:32.106Z,120
2023-05-15T05:07:38.792Z,114
2023-05-15T05:08:45.591Z,115
2023-05-15T05:09:52.356Z,118
2023-05-15T05:10:59.144Z,118
2023-05-15T05:12:05.985Z,121
2023-05-15T05:13:12.817Z,111
2023-05-15T05:14:19.603Z,117
2023-05-15T05:15:26.881Z,115
2023-05-15T05:16:33.485Z,120
2023-05-15T05:17:40.355Z,115
2023-05-15T05:18:47.199Z,116
2023-05-15T05:19:54.031Z,115
2023-05-15T05:21:00.807Z,119
2023-05-15T05:22:14.510Z,121
2023-05-15T05:23:21.351Z,120
2023-05-15T05:24:28.284Z,117
2023-05-15T05:25:35.275Z,117
2023-05-15T05:26:44.253Z,116
2023-05-15T05:27:51.062Z,120
2023-05-15T05:28:57.882Z,117
2023-05-15T05:30:04.679Z,120
2023-05-15T05:31:11.919Z,119
2023-05-15T05:32:57.473Z,120
2023-05-15T05:34:04.322Z,116
2023-05-15T05:35:11.121Z,123
2023-05-15T05:36:18.002Z,119
2023-05-15T05:37:24.774Z,113
2023-05-15T05:38:31.469Z,116
2023-05-15T05:39:38.190Z,117
2023-05-15T05:40:45.144Z,125
2023-05-15T05:41:51.989Z,113
2023-05-15T05:42:58.720Z,117
2023-05-15T05:44:05.541Z,116
2023-05-15T05:45:12.346Z,124
2023-05-15T05:46:19.608Z,118
2023-05-15T05:47:26.391Z,116
2023-05-15T05:48:33.279Z,118
2023-05-15T05:49:40.023Z,114
2023-05-15T05:50:46.898Z,116
2023-05-15T05:51:54.754Z,115
2023-05-15T05:53:01.684Z,118
2023-05-15T05:54:08.513Z,120
2023-05-15T05:55:15.300Z,115
2023-05-15T05:56:22.028Z,121
2023-05-15T05:57:28.850Z,118
2023-05-15T05:58:35.836Z,123
2023-05-15T05:59:42.738Z,116
2023-05-15T06:00:49.524Z,114
2023-05-15T06:01:56.373Z,121
2023-05-15T06:03:03.307Z,120
2023-05-15T06:04:10.057Z,121
2023-05-15T06:05:16.844Z,115
2023-05-15T06:06:32.621Z,113
2023-05-15T06:07:39.470Z,116
2023-05-15T06:08:55.693Z,113
2023-05-15T06:10:00.037Z,116
2023-05-15T06:11:06.871Z,113
2023-05-15T06:12:13.691Z,123
2023-05-15T06:13:26.835Z,113
2023-05-15T06:14:33.686Z,113
2023-05-15T06:15:40.443Z,120
2023-05-15T06:16:47.456Z,118
2023-05-15T06:17:54.359Z,107
2023-05-15T06:19:01.473Z,117
2023-05-15T06:20:08.274Z,116
2023-05-15T06:21:25.126Z,120
2023-05-15T06:22:31.932Z,114
2023-05-15T06:23:41.623Z,116
2023-05-15T06:25:07.139Z,113
2023-05-15T06:26:16.975Z,112
2023-05-15T06:27:58.847Z,112
2023-05-15T06:29:05.745Z,120
2023-05-15T06:30:17.548Z,116
2023-05-15T06:31:24.523Z,114
2023-05-15T06:32:32.483Z,115
2023-05-15T06:33:47.843Z,116
2023-05-15T06:34:54.842Z,107
2023-05-15T06:36:01.799Z,113
2023-05-15T06:37:08.782Z,110
2023-05-15T06:38:15.601Z,110
2023-05-15T06:39:22.436Z,107
2023-05-15T06:40:49.769Z,114
2023-05-15T06:41:56.670Z,111
2023-05-15T06:43:03.493Z,116
2023-05-15T06:44:38.245Z,114
2023-05-15T06:45:43.452Z,114
2023-05-15T06:46:48.693Z,114
2023-05-15T06:47:53.657Z,114
2023-05-15T06:49:01.568Z,123
2023-05-15T06:50:08.287Z,124
2023-05-15T06:51:16.514Z,121
2023-05-15T06:52:23.367Z,111
2023-05-15T06:53:30.312Z,121
2023-05-15T06:54:47.766Z,115
2023-05-15T06:55:55.505Z,108
2023-05-15T06:57:02.373Z,112
2023-05-15T06:58:31.612Z,116
2023-05-15T06:59:38.502Z,120
2023-05-15T07:00:45.555Z,127
2023-05-15T07:01:52.425Z,116
2023-05-15T07:02:59.255Z,114
2023-05-15T07:04:07.933Z,122
2023-05-15T07:05:15.067Z,107
2023-05-15T07:06:21.515Z,114
2023-05-15T07:07:29.734Z,122
2023-05-15T07:08:37.742Z,121
2023-05-15T07:09:44.551Z,111
2023-05-15T07:10:51.401Z,118
2023-05-15T07:11:58.348Z,118
2023-05-15T07:13:05.273Z,113
2023-05-15T07:14:18.044Z,115
2023-05-15T07:15:24.950Z,108
2023-05-15T07:16:32.690Z,107
2023-05-15T07:17:41.184Z,109
2023-05-15T07:18:48.009Z,111
2023-05-15T07:19:54.792Z,107
2023-05-15T07:21:01.600Z,106
2023-05-15T07:22:08.517Z,103
2023-05-15T07:23:46.621Z,109
2023-05-15T07:24:53.450Z,107
2023-05-15T07:26:00.302Z,102
2023-05-15T07:27:07.170Z,103
2023-05-15T07:28:13.996Z,102
2023-05-15T07:29:20.782Z,98
2023-05-15T07:30:27.858Z,96
2023-05-15T07:31:36.708Z,94
2023-05-15T07:32:43.569Z,102
2023-05-15T07:33:50.431Z,99
2023-05-15T07:35:04.285Z,97
2023-05-15T07:36:11.150Z,94
2023-05-15T07:37:18.062Z,90
2023-05-15T07:38:28.730Z,94
2023-05-15T07:39:35.547Z,94
2023-05-15T07:40:43.398Z,98
2023-05-15T07:41:50.277Z,95
2023-05-15T07:42:57.291Z,101
2023-05-15T07:44:04.174Z,104
2023-05-15T07:45:11.505Z,101
2023-05-15T07:46:18.280Z,100
2023-05-15T07:47:25.172Z,103
2023-05-15T07:48:31.997Z,111
2023-05-15T07:49:38.883Z,101
2023-05-15T07:50:45.748Z,108
2023-05-15T07:51:52.391Z,106
2023-05-15T07:52:59.234Z,110
2023-05-15T07:54:06.150Z,112
2023-05-15T07:55:12.876Z,117
2023-05-15T07:56:19.700Z,119
2023-05-15T07:57:26.594Z,110
2023-05-15T07:58:33.338Z,111
2023-05-15T07:59:40.294Z,112
2023-05-15T08:00:47.084Z,110
2023-05-15T08:01:53.907Z,116
2023-05-15T08:03:00.838Z,113
2023-05-15T08:04:07.667Z,114
2023-05-15T08:06:10.182Z,114
2023-05-15T08:07:16.757Z,113
2023-05-15T08:08:48.876Z,118
2023-05-15T08:09:55.792Z,111
2023-05-15T08:11:02.672Z,114
2023-05-15T08:12:09.480Z,106
2023-05-15T08:13:19.248Z,121
2023-05-15T08:14:26.273Z,114
2023-05-15T08:15:33.112Z,118
2023-05-15T08:16:39.940Z,122
2023-05-15T08:17:46.779Z,111
2023-05-15T08:18:53.730Z,112
2023-05-15T08:20:00.298Z,134
2023-05-15T08:21:07.298Z,128
2023-05-15T08:22:14.373Z,119
2023-05-15T08:23:20.829Z,123
2023-05-15T08:24:27.645Z,110
2023-05-15T08:25:37.389Z,110
2023-05-15T08:26:44.243Z,117
2023-05-15T08:27:50.946Z,108
2023-05-15T08:28:57.738Z,109
2023-05-15T08:30:12.278Z,105
2023-05-15T08:31:19.301Z,119
2023-05-15T08:32:26.256Z,106
2023-05-15T08:33:33.121Z,119
2023-05-15T08:34:39.984Z,110
2023-05-15T08:35:46.817Z,113
2023-05-15T08:36:53.528Z,124
2023-05-15T08:38:01.344Z,120
2023-05-15T08:39:08.184Z,111
2023-05-15T08:40:15.098Z,114
2023-05-15T08:41:32.866Z,107
2023-05-15T08:42:33.512Z,119
2023-05-15T08:43:43.624Z,119
2023-05-15T08:44:50.446Z,111
2023-05-15T08:45:57.220Z,117
2023-05-15T08:47:06.895Z,106
2023-05-15T08:48:13.627Z,110
2023-05-15T08:49:31.195Z,118
2023-05-15T08:50:43.180Z,116
2023-05-15T08:51:49.959Z,101
2023-05-15T08:52:57.666Z,108
2023-05-15T08:54:04.595Z,105
2023-05-15T08:55:11.380Z,109
2023-05-15T08:56:18.123Z,102
2023-05-15T08:57:24.857Z,107
2023-05-15T08:58:32.756Z,115
2023-05-15T08:59:39.634Z,115
2023-05-15T09:00:46.425Z,125
2023-05-15T09:01:53.274Z,108
2023-05-15T09:03:00.120Z,110
2023-05-15T09:04:06.928Z,118
2023-05-15T09:05:13.594Z,107
2023-05-15T09:06:20.449Z,116
2023-05-15T09:07:27.225Z,118
2023-05-15T09:08:33.950Z,119
2023-05-15T09:09:40.779Z,117
2023-05-15T09:10:50.237Z,114
2023-05-15T09:11:57.194Z,104
2023-05-15T09:13:03.951Z,114
2023-05-15T09:14:10.656Z,109
2023-05-15T09:15:17.436Z,111
2023-05-15T09:16:26.951Z,113
2023-05-15T09:17:33.787Z,110
2023-05-15T09:18:40.594Z,114
2023-05-15T09:19:47.278Z,122
2023-05-15T09:20:56.031Z,121
2023-05-15T09:22:00.882Z,119
2023-05-15T09:23:17.737Z,106
2023-05-15T09:24:27.341Z,123
2023-05-15T09:25:34.369Z,118
2023-05-15T09:26:46.712Z,112
2023-05-15T09:28:03.670Z,113
2023-05-15T09:29:10.557Z,112
2023-05-15T09:30:20.142Z,118
2023-05-15T09:31:26.976Z,108
2023-05-15T09:32:33.593Z,123
2023-05-15T09:33:40.814Z,112
2023-05-15T09:34:47.621Z,106
2023-05-15T09:35:54.485Z,114
2023-05-15T09:37:01.218Z,122
2023-05-15T09:38:08.133Z,113
2023-05-15T09:39:14.970Z,105
2023-05-15T09:40:21.853Z,103
2023-05-15T09:41:28.832Z,109
2023-05-15T09:42:35.703Z,104
2023-05-15T09:46:33.444Z,113
2023-05-15T09:47:40.711Z,107
2023-05-15T09:48:47.998Z,105
2023-05-15T09:49:58.357Z,108
2023-05-15T09:51:05.856Z,100
2023-05-15T09:52:18.096Z,98
2023-05-15T09:53:25.533Z,91
2023-05-15T09:54:32.536Z,100
2023-05-15T09:55:39.721Z,96
2023-05-15T09:56:50.090Z,76
2023-05-15T09:57:57.433Z,80
2023-05-15T09:59:07.819Z,78
2023-05-15T10:00:20.133Z,74
2023-05-15T10:01:27.157Z,67
2023-05-15T10:02:47.934Z,55
2023-05-15T10:04:14.350Z,49
2023-05-15T10:05:26.036Z,48
2023-05-15T10:06:37.721Z,43
2023-05-15T10:07:48.381Z,44
2023-05-15T10:09:13.332Z,25
2023-05-15T10:10:20.417Z,25
2023-05-15T10:11:27.488Z,28
2023-05-15T10:12:40.660Z,40
2023-05-15T10:13:47.759Z,25
2023-05-15T10:14:55.343Z,33
2023-05-15T10:16:02.521Z,25
2023-05-15T10:17:09.890Z,29
2023-05-15T10:18:17.112Z,25
2023-05-15T10:19:24.663Z,25
2023-05-15T10:20:32.071Z,44
2023-05-15T10:21:39.601Z,40
2023-05-15T10:23:13.349Z,25
2023-05-15T10:24:20.766Z,36
2023-05-15T10:25:28.096Z,34
2023-05-15T10:26:35.393Z,34
2023-05-15T10:27:45.701Z,26
2023-05-15T10:28:53.048Z,25
2023-05-15T10:30:00.226Z,26
2023-05-15T10:31:07.425Z,25
2023-05-15T10:32:14.524Z,31
2023-05-15T10:33:21.895Z,25
2023-05-15T10:34:29.381Z,32
2023-05-15T10:35:43.760Z,42
2023-05-15T10:36:57.151Z,42
2023-05-15T10:38:06.729Z,33
2023-05-15T10:39:20.854Z,36
2023-05-15T10:40:39.944Z,29
2023-05-15T10:41:47.396Z,36
2023-05-15T10:42:54.467Z,32
2023-05-15T10:44:02.010Z,35
2023-05-15T10:45:09.337Z,31
2023-05-15T10:46:16.505Z,25
2023-05-15T10:47:23.767Z,26
2023-05-15T10:48:30.904Z,29
2023-05-15T10:50:02.100Z,32
2023-05-15T10:51:24.007Z,33
2023-05-15T10:52:40.006Z,27
2023-05-15T10:53:47.302Z,28
2023-05-15T10:55:02.117Z,25
2023-05-15T10:56:17.403Z,25
2023-05-15T10:57:24.140Z,26
2023-05-15T10:58:34.033Z,32
2023-05-15T10:59:41.492Z,25
2023-05-15T11:00:49.026Z,33
2023-05-15T11:01:56.702Z,29
2023-05-15T11:03:14.661Z,28
2023-05-15T11:04:22.530Z,38
2023-05-15T11:05:30.109Z,41
2023-05-15T11:06:37.028Z,39
2023-05-15T11:07:46.762Z,30
2023-05-15T11:09:04.101Z,30
2023-05-15T11:10:21.627Z,30
2023-05-15T11:11:31.806Z,25
2023-05-15T11:12:49.098Z,25
2023-05-15T11:13:59.695Z,28
2023-05-15T11:15:09.373Z,25
2023-05-15T11:16:17.199Z,25
2023-05-15T11:17:29.621Z,34
2023-05-15T11:18:37.226Z,27
2023-05-15T11:19:44.490Z,32
2023-05-15T11:20:54.585Z,33
2023-05-15T11:22:01.745Z,39
2023-05-15T11:23:11.895Z,43
2023-05-15T11:24:18.986Z,35
2023-05-15T11:25:26.225Z,36
2023-05-15T11:26:33.628Z,29
2023-05-15T11:27:40.852Z,25
2023-05-15T11:28:47.894Z,32
2023-05-15T11:29:55.314Z,25
2023-05-15T11:31:12.711Z,42
2023-05-15T11:32:20.097Z,33
2023-05-15T11:33:37.516Z,28
2023-05-15T11:34:44.690Z,45
2023-05-15T11:35:51.873Z,34
2023-05-15T11:37:01.944Z,27
2023-05-15T11:38:09.411Z,25
2023-05-15T11:39:16.472Z,31
2023-05-15T11:40:23.873Z,29
2023-05-15T11:41:30.670Z,25
2023-05-15T11:42:38.010Z,26
2023-05-15T11:43:45.589Z,27
2023-05-15T11:44:53.233Z,30
2023-05-15T11:46:00.414Z,37
2023-05-15T11:47:07.339Z,28
2023-05-15T11:48:14.382Z,25
2023-05-15T11:49:21.758Z,30
2023-05-15T11:50:28.997Z,26
2023-05-15T11:51:36.333Z,27
2023-05-15T11:52:43.419Z,25
2023-05-15T11:53:50.887Z,25
2023-05-15T11:54:57.992Z,25
2023-05-15T11:56:05.385Z,25
2023-05-15T11:57:12.473Z,25
2023-05-15T11:58:19.615Z,29
2023-05-15T11:59:27.031Z,44
2023-05-15T12:00:34.489Z,53
2023-05-15T12:01:41.914Z,29
2023-05-15T12:02:49.193Z,31
2023-05-15T12:03:56.613Z,40
2023-05-15T12:05:03.405Z,25
2023-05-15T12:07:09.574Z,25
2023-05-15T12:08:16.956Z,25
2023-05-15T12:09:24.179Z,30
2023-05-15T12:10:31.571Z,38
2023-05-15T12:11:38.823Z,36
2023-05-15T12:12:45.816Z,31
2023-05-15T12:13:53.032Z,26
2023-05-15T12:15:00.352Z,25
2023-05-15T12:16:07.754Z,31
2023-05-15T12:17:15.401Z,31
2023-05-15T12:18:22.539Z,29
2023-05-15T12:19:29.960Z,27
2023-05-15T12:20:37.349Z,25
2023-05-15T12:21:45.402Z,33
2023-05-15T12:22:52.702Z,29
2023-05-15T12:25:31.322Z,28
2023-05-15T12:27:05.484Z,32
2023-05-15T12:28:14.130Z,29
2023-05-15T12:29:22.811Z,25
2023-05-15T12:30:34.786Z,27
2023-05-15T12:31:42.210Z,28
2023-05-15T12:33:03.719Z,25
2023-05-15T12:34:20.740Z,33
2023-05-15T12:35:38.547Z,37
2023-05-15T12:36:45.374Z,42
2023-05-15T12:37:52.222Z,40
2023-05-15T12:38:59.103Z,32
2023-05-15T12:40:09.489Z,33
2023-05-15T12:41:18.379Z,31
2023-05-15T12:42:26.464Z,25
2023-05-15T12:43:33.564Z,42
2023-05-15T12:44:42.226Z,35
2023-05-15T12:45:50.028Z,30
2023-05-15T12:46:57.481Z,38
2023-05-15T12:48:04.661Z,38
2023-05-15T12:49:12.119Z,25
2023-05-15T12:50:19.361Z,33
2023-05-15T12:51:26.584Z,26
2023-05-15T12:52:33.627Z,38
2023-05-15T12:53:41.218Z,32
2023-05-15T12:54:48.825Z,29
2023-05-15T12:55:56.452Z,29
2023-05-15T12:57:03.882Z,26
2023-05-15T12:58:10.984Z,25
2023-05-15T12:59:18.774Z,30
2023-05-15T13:00:30.820Z,25
2023-05-15T13:01:37.988Z,26
2023-05-15T13:02:45.069Z,29
2023-05-15T13:03:54.497Z,25
2023-05-15T13:05:01.342Z,31
2023-05-15T13:06:08.472Z,25
2023-05-15T13:07:15.455Z,25
2023-05-15T13:08:22.451Z,25
2023-05-15T13:09:29.630Z,35
2023-05-15T13:10:36.692Z,26
2023-05-15T13:11:43.708Z,38
2023-05-15T13:12:50.888Z,39
2023-05-15T13:13:58.090Z,35
2023-05-15T13:15:05.466Z,25
2023-05-15T13:16:12.509Z,37
2023-05-15T13:17:29.456Z,37
2023-05-15T13:18:37.904Z,36
2023-05-15T13:19:55.276Z,38
2023-05-15T13:21:04.648Z,27
2023-05-15T13:22:17.112Z,38
2023-05-15T13:23:24.744Z,31
2023-05-15T13:24:32.124Z,26
2023-05-15T13:25:39.500Z,45
2023-05-15T13:26:46.442Z,41
2023-05-15T13:27:53.550Z,35
2023-05-15T13:29:03.763Z,25
2023-05-15T13:30:10.864Z,34
2023-05-15T13:31:18.036Z,36
2023-05-15T13:32:25.007Z,35
2023-05-15T13:33:32.517Z,27
2023-05-15T13:34:39.928Z,30
2023-05-15T13:35:46.791Z,25
2023-05-15T13:36:54.012Z,38
2023-05-15T13:38:01.383Z,31
2023-05-15T13:39:08.946Z,27
2023-05-15T13:40:16.005Z,30
2023-05-15T13:41:23.040Z,25
2023-05-15T13:42:30.125Z,35
2023-05-15T13:43:37.369Z,45
2023-05-15T13:44:44.679Z,38
2023-05-15T13:45:51.912Z,49
2023-05-15T13:46:59.005Z,46
2023-05-15T13:48:23.841Z,33
2023-05-15T13:49:31.425Z,29
2023-05-15T13:50:38.797Z,35
2023-05-15T13:51:46.310Z,43
2023-05-15T13:52:53.918Z,40
2023-05-15T13:54:01.002Z,28
2023-05-15T13:55:08.010Z,29
2023-05-15T13:56:15.283Z,32
2023-05-15T13:57:22.505Z,31
2023-05-15T13:58:29.787Z,26
2023-05-15T13:59:36.894Z,37
2023-05-15T14:00:44.600Z,53
2023-05-15T14:01:51.661Z,55
2023-05-15T14:02:59.863Z,52
2023-05-15T14:04:07.231Z,46
2023-05-15T14:05:14.816Z,34
2023-05-15T14:06:21.949Z,25
2023-05-15T14:07:29.799Z,35
2023-05-15T14:08:37.625Z,26
2023-05-15T14:09:45.177Z,25
2023-05-15T14:10:52.331Z,41
2023-05-15T14:12:01.727Z,40
2023-05-15T14:13:10.932Z,31
2023-05-15T14:14:18.262Z,29
2023-05-15T14:15:28.740Z,26
2023-05-15T14:16:36.090Z,30
2023-05-15T14:17:43.599Z,38
2023-05-15T14:18:50.502Z,35
2023-05-15T14:19:57.518Z,33
2023-05-15T14:21:05.249Z,31
2023-05-15T14:22:12.559Z,40
2023-05-15T14:23:19.590Z,38
2023-05-15T14:24:26.917Z,38
2023-05-15T14:25:34.350Z,35
2023-05-15T14:26:41.815Z,42
2023-05-15T14:27:58.193Z,42
2023-05-15T14:29:05.655Z,43
2023-05-15T14:30:12.837Z,42
2023-05-15T14:31:20.313Z,41
2023-05-15T14:32:27.317Z,45
2023-05-15T14:33:34.630Z,47
2023-05-15T14:34:41.896Z,50
2023-05-15T14:35:48.871Z,43
2023-05-15T14:36:56.399Z,47
2023-05-15T14:38:03.624Z,38
2023-05-15T14:39:10.690Z,39
2023-05-15T14:40:18.165Z,47
2023-05-15T14:41:25.348Z,45
2023-05-15T14:42:32.600Z,52
2023-05-15T14:43:39.728Z,53
2023-05-15T14:44:46.898Z,49
2023-05-15T14:45:54.152Z,44
2023-05-15T14:47:01.078Z,45
2023-05-15T14:48:08.250Z,49
2023-05-15T14:49:15.589Z,45
2023-05-15T14:50:22.676Z,36
2023-05-15T14:51:29.867Z,43
2023-05-15T14:52:37.182Z,41
2023-05-15T14:53:47.416Z,35
2023-05-15T14:55:07.684Z,37
2023-05-15T14:56:09.196Z,42
2023-05-15T14:57:16.607Z,37
2023-05-15T14:58:23.821Z,28
2023-05-15T14:59:30.977Z,30
2023-05-15T15:00:38.285Z,32
2023-05-15T15:01:45.859Z,36
2023-05-15T15:02:53.097Z,37
2023-05-15T15:04:00.182Z,32
2023-05-15T15:05:07.474Z,37
2023-05-15T15:06:14.831Z,36
2023-05-15T15:07:23.480Z,30
2023-05-15T15:08:30.640Z,33
2023-05-15T15:09:37.863Z,28
2023-05-15T15:10:46.632Z,25
2023-05-15T15:11:54.394Z,31
2023-05-15T15:13:01.131Z,25
2023-05-15T15:14:08.283Z,34
2023-05-15T15:15:15.363Z,26
2023-05-15T15:16:22.404Z,28
2023-05-15T15:17:29.449Z,30
2023-05-15T15:18:36.532Z,30
2023-05-15T15:19:43.536Z,30
2023-05-15T15:20:50.552Z,32
2023-05-15T15:21:57.864Z,30
2023-05-15T15:23:04.857Z,41
2023-05-15T15:24:12.042Z,41
2023-05-15T15:25:19.323Z,40
2023-05-15T15:26:26.629Z,38
2023-05-15T15:27:33.861Z,32
2023-05-15T15:28:40.865Z,39
2023-05-15T15:29:48.025Z,31
2023-05-15T15:30:55.339Z,34
2023-05-15T15:32:02.598Z,41
2023-05-15T15:33:09.908Z,36
2023-05-15T15:34:17.152Z,43
2023-05-15T15:35:24.250Z,45
2023-05-15T15:36:32.542Z,46
2023-05-15T15:37:39.999Z,46
2023-05-15T15:38:47.224Z,46
2023-05-15T15:39:54.290Z,49
2023-05-15T15:41:01.471Z,46
2023-05-15T15:42:08.626Z,52
2023-05-15T15:43:15.881Z,54
2023-05-15T15:44:23.259Z,48
2023-05-15T15:45:30.493Z,58
2023-05-15T15:46:37.628Z,52
2023-05-15T15:47:44.942Z,51
2023-05-15T15:48:52.128Z,54
2023-05-15T15:49:59.418Z,52
2023-05-15T15:51:07.779Z,52
2023-05-15T15:52:14.787Z,54
2023-05-15T15:53:21.937Z,55
2023-05-15T15:54:29.071Z,56
2023-05-15T15:55:36.169Z,57
2023-05-15T15:56:43.138Z,63
2023-05-15T15:57:50.210Z,56
2023-05-15T15:58:57.530Z,54
2023-05-15T16:00:04.549Z,57
2023-05-15T16:01:12.118Z,50
2023-05-15T16:02:19.477Z,46
2023-05-15T16:03:26.728Z,51
2023-05-15T16:04:33.756Z,43
2023-05-15T16:05:40.643Z,47
2023-05-15T16:06:47.709Z,57
2023-05-15T16:07:54.983Z,48
2023-05-15T16:09:01.835Z,42
2023-05-15T16:10:12.153Z,41
2023-05-15T16:11:15.451Z,38
2023-05-15T16:12:22.183Z,44
2023-05-15T16:13:28.963Z,44
2023-05-15T16:14:35.745Z,39